createdAt,value
2023-03-13T00:02:24.779Z,47.13
2023-03-13T00:05:13.810Z,53.55
2023-03-13T00:08:02.045Z,49.13
2023-03-13T00:10:47.721Z,42.17
2023-03-13T00:13:29.872Z,46.20
2023-03-13T00:16:24.735Z,56.85
2023-03-13T00:19:15.654Z,50.75
2023-03-13T00:22:04.529Z,37.97
2023-03-13T00:24:54.704Z,48.38
2023-03-13T00:27:50.556Z,39.92
2023-03-13T00:30:39.732Z,46.67
2023-03-13T00:33:28.664Z,40.30
2023-03-13T00:36:21.647Z,49.15
2023-03-13T00:39:11.667Z,49.20
2023-03-13T00:41:53.899Z,47.28
2023-03-13T00:44:43.862Z,47.92
2023-03-13T00:47:25.955Z,49.65
2023-03-13T00:50:14.619Z,52.60
2023-03-13T00:52:56.929Z,55.40
2023-03-13T00:55:45.963Z,46.63
2023-03-13T00:58:37.020Z,53.80
2023-03-13T01:01:25.695Z,58.03
2023-03-13T01:04:18.736Z,56.35
2023-03-13T01:07:00.930Z,62.35
2023-03-13T01:09:49.688Z,57.47
2023-03-13T01:12:31.933Z,59.83
2023-03-13T01:15:20.663Z,53.00
2023-03-13T01:18:03.042Z,56.50
2023-03-13T01:20:51.711Z,55.78
2023-03-13T01:23:36.939Z,56.92
2023-03-13T01:26:25.631Z,69.03
2023-03-13T01:29:20.655Z,60.80
2023-03-13T01:32:09.697Z,62.30
2023-03-13T01:34:58.632Z,57.67
2023-03-13T01:37:47.649Z,63.15
2023-03-13T01:40:29.983Z,56.28
2023-03-13T01:43:39.705Z,61.08
2023-03-13T01:46:32.675Z,59.72
2023-03-13T01:49:37.732Z,62.88
2023-03-13T01:55:45.695Z,61.55
2023-03-13T01:58:28.983Z,60.28
2023-03-13T02:01:17.710Z,62.03
2023-03-13T02:04:00.047Z,67.15
2023-03-13T02:06:51.744Z,64.65
2023-03-13T02:09:43.704Z,66.32
2023-03-13T02:12:44.997Z,72.72
2023-03-13T02:15:30.138Z,81.75
2023-03-13T02:18:20.615Z,83.82
2023-03-13T02:21:16.678Z,77.97
2023-03-13T02:24:28.039Z,79.32
2023-03-13T02:27:10.971Z,90.10
2023-03-13T02:32:43.707Z,108.80
2023-03-13T02:35:26.168Z,141.43
2023-03-13T02:38:20.745Z,122.57
2023-03-13T02:41:04.187Z,127.18
2023-03-13T02:43:53.724Z,108.97
2023-03-13T02:46:56.073Z,107.25
2023-03-13T02:49:38.706Z,105.70
2023-03-13T02:52:27.627Z,104.80
2023-03-13T02:55:19.417Z,95.80
2023-03-13T02:58:08.778Z,101.22
2023-03-13T03:00:50.943Z,90.57
2023-03-13T03:03:39.764Z,88.53
2023-03-13T03:06:28.641Z,98.60
2023-03-13T03:09:20.733Z,88.70
2023-03-13T03:12:14.739Z,98.47
2023-03-13T03:14:56.988Z,89.65
2023-03-13T03:17:47.641Z,108.25
2023-03-13T03:20:37.773Z,115.32
2023-03-13T03:23:21.013Z,117.20
2023-03-13T03:26:10.628Z,108.55
2023-03-13T03:28:59.749Z,95.93
2023-03-13T03:31:41.920Z,91.05
2023-03-13T03:34:30.893Z,90.63
2023-03-13T03:37:18.911Z,88.25
2023-03-13T03:40:01.769Z,78.00
2023-03-13T03:42:49.933Z,78.40
2023-03-13T03:45:32.720Z,86.80
2023-03-13T03:48:14.914Z,81.53
2023-03-13T03:51:03.715Z,80.60
2023-03-13T03:53:57.017Z,86.18
2023-03-13T03:56:41.677Z,78.10
2023-03-13T03:59:29.968Z,78.60
2023-03-13T04:02:15.721Z,71.18
2023-03-13T04:07:55.652Z,82.75
2023-03-13T04:10:45.693Z,91.75
2023-03-13T04:13:30.932Z,117.03
2023-03-13T04:16:19.740Z,99.90
2023-03-13T04:19:03.991Z,119.25
2023-03-13T04:21:52.689Z,126.25
2023-03-13T04:24:35.023Z,122.55
2023-03-13T04:27:24.742Z,113.00
2023-03-13T04:30:20.624Z,120.80
2023-03-13T04:33:29.347Z,119.40
2023-03-13T04:36:30.906Z,122.63
2023-03-13T04:39:27.061Z,133.18
2023-03-13T04:42:33.735Z,112.88
2023-03-13T04:45:40.847Z,123.97
2023-03-13T04:48:41.501Z,126.72
2023-03-13T04:51:47.278Z,137.98
2023-03-13T04:54:54.658Z,135.60
2023-03-13T04:58:00.391Z,174.70
2023-03-13T05:01:00.792Z,159.63
2023-03-13T05:04:06.109Z,125.65
2023-03-13T05:07:12.709Z,117.53
2023-03-13T05:10:24.631Z,122.13
2023-03-13T05:13:39.731Z,117.47
2023-03-13T05:16:41.907Z,110.07
2023-03-13T05:20:02.738Z,101.30
2023-03-13T05:23:07.892Z,108.88
2023-03-13T05:26:31.756Z,95.57
2023-03-13T05:29:26.524Z,102.45
2023-03-13T05:32:21.702Z,92.95
2023-03-13T05:35:24.092Z,88.10
2023-03-13T05:38:28.099Z,86.38
2023-03-13T05:41:33.064Z,73.57
2023-03-13T05:44:40.654Z,71.85
2023-03-13T05:47:36.122Z,66.10
2023-03-13T05:50:48.684Z,67.30
2023-03-13T05:53:57.681Z,70.35
2023-03-13T05:56:58.834Z,62.63
2023-03-13T06:00:05.762Z,60.13
2023-03-13T06:03:06.959Z,64.13
2023-03-13T06:05:57.660Z,58.70
2023-03-13T06:08:59.922Z,62.80
2023-03-13T06:14:32.841Z,59.97
2023-03-13T06:17:42.636Z,59.78
2023-03-13T06:20:31.019Z,53.97
2023-03-13T06:23:14.000Z,43.30
2023-03-13T06:26:02.965Z,36.67
2023-03-13T06:28:57.701Z,31.58
2023-03-13T06:31:47.144Z,42.30
2023-03-13T06:34:30.865Z,31.80
2023-03-13T06:37:18.987Z,40.00
2023-03-13T06:40:01.639Z,33.47
2023-03-13T06:42:51.020Z,35.00
2023-03-13T06:45:33.684Z,33.63
2023-03-13T06:48:16.028Z,23.95
2023-03-13T06:51:05.632Z,26.45
2023-03-13T06:53:55.669Z,31.02
2023-03-13T06:56:44.728Z,26.58
2023-03-13T06:59:26.928Z,24.92
2023-03-13T07:02:15.644Z,32.15
2023-03-13T07:05:06.896Z,25.65
2023-03-13T07:07:49.653Z,22.58
2023-03-13T07:10:41.126Z,22.65
2023-03-13T07:13:23.633Z,26.67
2023-03-13T07:16:52.077Z,27.30
2023-03-13T07:19:41.733Z,24.48
2023-03-13T07:22:24.305Z,18.00
2023-03-13T07:25:13.750Z,22.92
2023-03-13T07:27:59.010Z,22.80
2023-03-13T07:30:47.762Z,28.20
2023-03-13T07:33:29.942Z,26.10
2023-03-13T07:36:20.753Z,22.75
2023-03-13T07:39:02.946Z,24.42
2023-03-13T07:41:51.743Z,32.17
2023-03-13T07:44:33.968Z,32.15
2023-03-13T07:47:22.756Z,22.88
2023-03-13T07:50:05.430Z,20.67
2023-03-13T07:52:54.682Z,29.08
2023-03-13T07:55:36.964Z,22.67
2023-03-13T07:58:25.661Z,19.05
2023-03-13T08:01:09.000Z,23.95
2023-03-13T08:04:02.096Z,21.42
2023-03-13T08:06:43.987Z,28.63
2023-03-13T08:09:32.768Z,25.92
2023-03-13T08:12:15.936Z,21.67
2023-03-13T08:15:04.663Z,24.63
2023-03-13T08:17:59.534Z,24.30
2023-03-13T08:20:48.671Z,16.73
2023-03-13T08:23:31.028Z,27.50
2023-03-13T08:26:25.743Z,23.85
2023-03-13T08:29:11.033Z,13.68
2023-03-13T08:32:00.699Z,17.92
2023-03-13T08:34:42.881Z,15.52
2023-03-13T08:37:31.748Z,21.35
2023-03-13T08:40:15.120Z,14.70
2023-03-13T08:43:03.693Z,16.35
2023-03-13T08:45:46.008Z,16.42
2023-03-13T08:48:34.674Z,21.40
2023-03-13T08:51:18.934Z,20.00
2023-03-13T08:54:07.790Z,19.33
2023-03-13T08:56:50.116Z,15.75
2023-03-13T08:59:38.669Z,22.65
2023-03-13T09:02:28.701Z,14.32
2023-03-13T09:05:17.913Z,12.63
2023-03-13T09:08:01.614Z,13.55
2023-03-13T09:10:49.935Z,15.50
2023-03-13T09:13:35.908Z,15.18
2023-03-13T09:16:27.936Z,12.65
2023-03-13T09:19:16.707Z,12.15
2023-03-13T09:21:59.004Z,12.75
2023-03-13T09:24:49.078Z,20.08
2023-03-13T09:27:31.017Z,12.75
2023-03-13T09:30:19.638Z,15.23
2023-03-13T09:33:02.120Z,18.85
2023-03-13T09:35:51.704Z,24.42
2023-03-13T09:38:36.220Z,22.02
2023-03-13T09:41:48.937Z,14.55
2023-03-13T09:44:45.553Z,11.10
2023-03-13T09:47:49.723Z,15.68
2023-03-13T09:50:41.984Z,17.38
2023-03-13T09:54:04.498Z,18.48
2023-03-13T09:57:04.941Z,15.88
2023-03-13T10:00:08.824Z,19.90
2023-03-13T10:03:20.983Z,18.17
2023-03-13T10:06:37.662Z,28.67
2023-03-13T10:09:41.972Z,22.10
2023-03-13T10:12:37.726Z,13.13
2023-03-13T10:15:51.037Z,22.00
2023-03-13T10:18:40.708Z,14.27
2023-03-13T10:21:27.041Z,25.77
2023-03-13T10:24:45.666Z,18.52
2023-03-13T10:27:27.930Z,12.50
2023-03-13T10:30:28.870Z,15.50
2023-03-13T10:33:16.888Z,29.70
2023-03-13T10:36:23.673Z,17.30
2023-03-13T10:39:05.946Z,20.30
2023-03-13T10:41:56.823Z,18.00
2023-03-13T10:44:40.963Z,17.58
2023-03-13T10:47:29.733Z,22.65
2023-03-13T10:50:13.000Z,17.40
2023-03-13T10:53:02.632Z,17.17
2023-03-13T10:55:51.934Z,18.17
2023-03-13T10:58:50.688Z,19.00
2023-03-13T11:01:48.958Z,15.40
2023-03-13T11:04:41.670Z,14.43
2023-03-13T11:07:29.947Z,19.23
2023-03-13T11:10:31.699Z,14.75
2023-03-13T11:13:13.992Z,21.35
2023-03-13T11:16:21.828Z,20.38
2023-03-13T11:19:16.283Z,27.98
2023-03-13T11:22:23.724Z,18.42
2023-03-13T11:25:28.931Z,18.38
2023-03-13T11:28:22.677Z,17.92
2023-03-13T11:31:14.042Z,21.02
2023-03-13T11:34:23.642Z,19.92
2023-03-13T11:37:20.428Z,20.75
2023-03-13T11:40:28.649Z,24.13
2023-03-13T11:43:27.934Z,16.50
2023-03-13T11:47:05.712Z,15.48
2023-03-13T11:50:04.979Z,27.95
2023-03-13T11:53:11.751Z,21.08
2023-03-13T11:56:18.391Z,22.90
2023-03-13T11:59:28.618Z,22.33
2023-03-13T12:02:26.086Z,15.38
2023-03-13T12:05:23.080Z,19.17
2023-03-13T12:08:18.948Z,18.75
2023-03-13T12:11:39.670Z,9.80
2023-03-13T12:14:37.928Z,15.85
2023-03-13T12:17:55.768Z,15.82
2023-03-13T12:20:54.618Z,13.02
2023-03-13T12:24:02.825Z,15.82
2023-03-13T12:27:15.663Z,17.00
2023-03-13T12:30:25.901Z,8.93
2023-03-13T12:33:32.711Z,14.45
2023-03-13T12:36:27.456Z,15.40
2023-03-13T12:40:02.029Z,16.70
2023-03-13T12:43:19.987Z,14.30
2023-03-13T12:46:14.738Z,25.42
2023-03-13T12:48:59.997Z,20.40
2023-03-13T12:52:05.805Z,18.80
2023-03-13T12:54:54.012Z,21.55
2023-03-13T12:58:15.624Z,18.30
2023-03-13T13:01:00.060Z,20.42
2023-03-13T13:03:59.736Z,17.33
2023-03-13T13:07:09.600Z,19.40
2023-03-13T13:10:35.323Z,18.65
2023-03-13T13:13:26.464Z,16.55
2023-03-13T13:16:25.765Z,26.92
2023-03-13T13:19:33.452Z,21.70
2023-03-13T13:22:45.603Z,22.05
2023-03-13T13:25:37.044Z,19.73
2023-03-13T13:28:36.717Z,21.85
2023-03-13T13:32:05.312Z,36.88
2023-03-13T13:35:06.677Z,27.17
2023-03-13T13:37:56.920Z,13.55
2023-03-13T13:40:40.703Z,16.40
2023-03-13T13:43:25.914Z,21.60
2023-03-13T13:46:16.688Z,18.73
2023-03-13T13:49:15.656Z,22.30
2023-03-13T13:52:21.266Z,20.35
2023-03-13T13:55:10.647Z,28.65
2023-03-13T13:57:53.937Z,32.30
2023-03-13T14:00:53.660Z,29.58
2023-03-13T14:03:43.185Z,34.38
2023-03-13T14:06:38.643Z,43.13
2023-03-13T14:09:49.060Z,37.40
2023-03-13T14:12:39.814Z,37.78
2023-03-13T14:15:30.027Z,54.75
2023-03-13T14:18:24.717Z,35.70
2023-03-13T14:21:23.601Z,40.92
2023-03-13T14:24:21.590Z,27.77
2023-03-13T14:27:03.920Z,52.92
2023-03-13T14:30:16.721Z,39.10
2023-03-13T14:33:00.291Z,35.23
2023-03-13T14:35:50.765Z,33.13
2023-03-13T14:38:35.082Z,42.63
2023-03-13T14:41:40.653Z,37.40
2023-03-13T14:44:36.988Z,28.10
2023-03-13T14:47:33.701Z,30.23
2023-03-13T14:50:21.873Z,43.47
2023-03-13T14:53:19.821Z,38.55
2023-03-13T14:56:23.244Z,36.80
2023-03-13T14:59:32.628Z,34.05
2023-03-13T15:02:24.222Z,28.35
2023-03-13T15:05:17.680Z,25.63
2023-03-13T15:08:01.957Z,39.92
2023-03-13T15:10:51.770Z,33.33
2023-03-13T15:13:43.974Z,31.75
2023-03-13T15:16:34.787Z,36.90
2023-03-13T15:19:29.526Z,35.88
2023-03-13T15:22:24.012Z,31.30
2023-03-13T15:25:07.905Z,32.40
2023-03-13T15:27:57.733Z,30.95
2023-03-13T15:30:39.919Z,35.08
2023-03-13T15:33:30.673Z,35.15
2023-03-13T15:36:13.190Z,41.45
2023-03-13T15:39:01.691Z,37.10
2023-03-13T15:41:44.126Z,37.90
2023-03-13T15:44:32.730Z,31.42
2023-03-13T15:47:18.940Z,49.42
2023-03-13T15:50:07.614Z,38.92
2023-03-13T15:52:49.983Z,42.83
2023-03-13T15:55:40.599Z,41.50
2023-03-13T15:58:23.099Z,35.22
2023-03-13T16:01:11.794Z,38.72
2023-03-13T16:03:54.271Z,43.33
2023-03-13T16:06:43.688Z,33.13
2023-03-13T16:09:26.034Z,50.13
2023-03-13T16:12:15.605Z,35.83
2023-03-13T16:15:04.675Z,39.05
2023-03-13T16:17:59.561Z,39.63
2023-03-13T16:20:54.741Z,46.38
2023-03-13T16:23:42.985Z,37.80
2023-03-13T16:26:32.030Z,37.50
2023-03-13T16:29:23.107Z,50.38
2023-03-13T16:32:05.606Z,45.53
2023-03-13T16:34:54.441Z,45.28
2023-03-13T16:37:37.653Z,38.03
2023-03-13T16:40:33.080Z,42.63
2023-03-13T16:43:14.665Z,49.20
2023-03-13T16:46:07.424Z,43.67
2023-03-13T16:48:50.713Z,49.95
2023-03-13T16:51:39.983Z,45.05
2023-03-13T16:54:22.690Z,46.22
2023-03-13T16:57:10.994Z,46.25
2023-03-13T16:59:53.653Z,56.40
2023-03-13T17:02:38.522Z,49.45
2023-03-13T17:05:27.640Z,52.65
2023-03-13T17:08:19.962Z,53.58
2023-03-13T17:11:01.616Z,67.22
2023-03-13T17:13:52.088Z,66.18
2023-03-13T17:16:40.658Z,70.47
2023-03-13T17:19:36.485Z,73.20
2023-03-13T17:22:26.631Z,66.40
2023-03-13T17:25:09.079Z,64.78
2023-03-13T17:27:57.619Z,79.93
2023-03-13T17:30:41.845Z,77.25
2023-03-13T17:33:30.634Z,72.22
2023-03-13T17:36:28.149Z,60.28
2023-03-13T17:39:21.579Z,51.70
2023-03-13T17:42:06.596Z,56.83
2023-03-13T17:44:55.917Z,50.70
2023-03-13T17:47:38.246Z,52.85
2023-03-13T17:50:30.638Z,54.88
2023-03-13T17:53:12.939Z,58.75
2023-03-13T17:56:01.637Z,59.08
2023-03-13T17:58:45.543Z,51.45
2023-03-13T18:01:39.639Z,40.22
2023-03-13T18:04:28.608Z,51.05
2023-03-13T18:07:53.275Z,42.33
2023-03-13T18:10:37.870Z,54.95
2023-03-13T18:13:26.592Z,42.17
2023-03-13T18:16:08.907Z,41.50
2023-03-13T18:19:03.619Z,45.22
2023-03-13T18:22:10.488Z,43.42
2023-03-13T18:24:59.650Z,42.33
2023-03-13T18:27:42.306Z,35.53
2023-03-13T18:30:32.622Z,35.97
2023-03-13T18:33:17.603Z,38.78
2023-03-13T18:36:06.603Z,36.80
2023-03-13T18:38:49.911Z,35.22
2023-03-13T18:41:38.598Z,32.28
2023-03-13T18:44:21.977Z,31.88
2023-03-13T18:47:21.866Z,27.90
2023-03-13T18:50:04.430Z,26.27
2023-03-13T18:52:53.677Z,25.58
2023-03-13T18:55:38.173Z,30.00
2023-03-13T18:58:26.609Z,27.60
2023-03-13T19:01:08.995Z,26.00
2023-03-13T19:03:59.432Z,26.48
2023-03-13T19:06:44.151Z,27.88
2023-03-13T19:09:43.261Z,31.88
2023-03-13T19:12:25.911Z,26.60
2023-03-13T19:15:14.671Z,26.25
2023-03-13T19:17:57.217Z,28.55
2023-03-13T19:20:51.631Z,28.40
2023-03-13T19:23:33.828Z,25.13
2023-03-13T19:26:31.677Z,27.83
2023-03-13T19:29:30.908Z,26.83
2023-03-13T19:32:14.645Z,28.10
2023-03-13T19:34:56.795Z,27.85
2023-03-13T19:37:45.650Z,26.83
2023-03-13T19:40:34.846Z,27.40
2023-03-13T19:43:16.612Z,26.88
2023-03-13T19:46:04.868Z,26.05
2023-03-13T19:48:47.058Z,26.60
2023-03-13T19:51:37.890Z,31.02
2023-03-13T19:54:20.608Z,28.85
2023-03-13T19:57:02.921Z,28.45
2023-03-13T19:59:54.325Z,26.30
2023-03-13T20:02:37.001Z,28.17
2023-03-13T20:05:25.640Z,20.55
2023-03-13T20:08:07.624Z,31.83
2023-03-13T20:10:55.896Z,28.73
2023-03-13T20:13:38.660Z,30.13
2023-03-13T20:16:24.630Z,29.10
2023-03-13T20:19:14.634Z,26.67
2023-03-13T20:22:03.565Z,29.67
2023-03-13T20:24:52.618Z,31.33
2023-03-13T20:27:34.934Z,29.52
2023-03-13T20:30:24.697Z,29.48
2023-03-13T20:33:13.047Z,36.65
2023-03-13T20:35:54.708Z,35.20
2023-03-13T20:38:43.644Z,38.35
2023-03-13T20:41:36.813Z,31.30
2023-03-13T20:44:24.908Z,31.98
2023-03-13T20:47:07.649Z,34.13
2023-03-13T20:49:49.772Z,36.78
2023-03-13T20:52:38.612Z,27.70
2023-03-13T20:55:27.630Z,32.97
2023-03-13T20:58:09.888Z,24.35
2023-03-13T21:00:58.880Z,28.40
2023-03-13T21:03:40.954Z,21.90
2023-03-13T21:06:29.618Z,23.88
2023-03-13T21:09:11.893Z,22.25
2023-03-13T21:12:00.612Z,29.70
2023-03-13T21:14:43.536Z,27.77
2023-03-13T21:17:33.643Z,20.52
2023-03-13T21:20:29.506Z,24.85
2023-03-13T21:23:18.638Z,19.42
2023-03-13T21:26:01.960Z,19.52
2023-03-13T21:28:50.613Z,16.97
2023-03-13T21:31:32.952Z,21.25
2023-03-13T21:34:21.681Z,14.50
2023-03-13T21:37:03.912Z,10.57
2023-03-13T21:39:53.609Z,17.00
2023-03-13T21:42:37.113Z,10.35
2023-03-13T21:45:25.615Z,15.55
2023-03-13T21:48:08.949Z,9.82
2023-03-13T21:51:00.593Z,10.90
2023-03-13T21:53:45.461Z,12.13
2023-03-13T21:56:34.683Z,9.60
2023-03-13T21:59:18.134Z,12.13
2023-03-13T22:02:06.630Z,13.25
2023-03-13T22:04:48.945Z,12.18
2023-03-13T22:07:38.672Z,16.48
2023-03-13T22:10:27.565Z,14.10
2023-03-13T22:13:18.570Z,11.48
2023-03-13T22:16:03.752Z,18.48
2023-03-13T22:18:52.654Z,12.32
2023-03-13T22:21:41.671Z,8.48
2023-03-13T22:24:23.931Z,11.68
2023-03-13T22:27:12.676Z,11.52
2023-03-13T22:30:01.652Z,9.82
2023-03-13T22:32:43.924Z,8.90
2023-03-13T22:35:32.674Z,11.85
2023-03-13T22:38:14.889Z,15.93
2023-03-13T22:41:14.632Z,15.00
2023-03-13T22:43:56.883Z,10.57
2023-03-13T22:46:45.660Z,11.63
2023-03-13T22:49:27.882Z,13.38
2023-03-13T22:52:16.683Z,12.07
2023-03-13T22:54:58.991Z,14.90
2023-03-13T22:57:47.559Z,13.00
2023-03-13T23:00:29.897Z,15.23
2023-03-13T23:03:18.764Z,13.57
2023-03-13T23:06:07.529Z,13.32
2023-03-13T23:08:57.034Z,15.50
2023-03-13T23:11:42.042Z,13.07
2023-03-13T23:14:30.672Z,7.63
2023-03-13T23:17:12.878Z,10.65
2023-03-13T23:20:01.575Z,12.98
2023-03-13T23:22:50.590Z,16.02
2023-03-13T23:25:38.979Z,11.52
2023-03-13T23:28:21.673Z,13.10
2023-03-13T23:31:30.936Z,15.00
2023-03-13T23:34:13.549Z,14.52
2023-03-13T23:37:01.932Z,17.50
2023-03-13T23:39:43.628Z,18.20
2023-03-13T23:42:32.118Z,15.82
2023-03-13T23:45:14.585Z,12.77
2023-03-13T23:48:03.907Z,19.53
2023-03-13T23:50:46.635Z,11.95
2023-03-13T23:53:34.912Z,17.90
2023-03-13T23:56:18.585Z,12.98
2023-03-13T23:59:07.869Z,11.38
